Time;durP1;ratioP1;P1;durP2;ratioP2;P2;SDS_P1;SDS_P2;PMS_P1;PMS_P2;Temp;Humidity;BMP_temperature;BMP_pressure;BME280_temperature;BME280_humidity;BME280_pressure;Samples;Min_cycle;Max_cycle;Signal;HPM_P1;HPM_P2
2022/06/26 07:16:03;;;;;;;6.30;1.02;;;19.00;67.90;;;;;;6129657;23;20036;-87
2022/06/26 07:18:29;;;;;;;6.38;1.20;;;19.10;67.80;;;;;;6055303;23;20031;-88
2022/06/26 07:20:54;;;;;;;3.20;1.20;;;19.10;68.40;;;;;;6033170;23;20058;-87
2022/06/26 07:23:20;;;;;;;7.57;1.00;;;19.10;67.70;;;;;;6054898;23;20097;-87
2022/06/26 07:25:46;;;;;;;4.80;1.05;;;19.10;67.60;;;;;;6030296;23;20007;-87
2022/06/26 07:28:12;;;;;;;3.25;0.90;;;19.10;68.10;;;;;;6030973;23;20011;-87
2022/06/26 07:30:38;;;;;;;8.30;1.23;;;19.10;67.30;;;;;;6028751;23;20007;-87
2022/06/26 07:33:05;;;;;;;7.85;1.30;;;19.20;67.30;;;;;;6055654;23;20010;-87
2022/06/26 07:35:31;;;;;;;4.00;1.30;;;19.20;67.00;;;;;;6028013;23;20003;-86
2022/06/26 07:37:57;;;;;;;1.95;0.77;;;19.20;67.40;;;;;;6031523;23;20011;-86
2022/06/26 07:40:23;;;;;;;5.20;1.08;;;19.20;66.70;;;;;;6032833;23;20003;-87
2022/06/26 07:42:49;;;;;;;3.08;0.73;;;19.20;66.40;;;;;;6026017;23;20007;-87
2022/06/26 07:45:15;;;;;;;5.00;1.02;;;19.30;66.30;;;;;;6030638;23;20510;-87
2022/06/26 07:47:41;;;;;;;6.53;1.05;;;19.30;66.10;;;;;;6031169;23;20042;-86
2022/06/26 07:50:07;;;;;;;3.80;0.90;;;19.30;66.30;;;;;;6031695;23;20026;-87
2022/06/26 07:52:32;;;;;;;7.57;1.02;;;19.30;65.30;;;;;;6031884;23;20015;-88
2022/06/26 07:54:59;;;;;;;5.72;0.98;;;19.40;65.00;;;;;;6027824;23;20073;-86
2022/06/26 07:57:24;;;;;;;4.05;1.20;;;19.30;64.80;;;;;;6028140;23;20329;-87
2022/06/26 07:59:50;;;;;;;6.38;0.82;;;19.40;64.60;;;;;;6025152;23;20221;-87
2022/06/26 08:02:16;;;;;;;4.55;0.80;;;19.40;64.30;;;;;;6027984;23;20359;-87
2022/06/26 08:04:42;;;;;;;5.20;0.93;;;19.40;64.00;;;;;;6029905;23;20010;-87
2022/06/26 08:07:09;;;;;;;9.73;1.08;;;19.50;63.70;;;;;;6034210;23;20082;-87
2022/06/26 08:09:35;;;;;;;5.20;0.80;;;19.40;63.40;;;;;;6034112;23;20354;-87
2022/06/26 08:12:00;;;;;;;3.80;0.90;;;19.50;63.30;;;;;;6010042;23;20551;-88
2022/06/26 08:14:26;;;;;;;3.28;0.90;;;19.50;63.20;;;;;;6033799;23;20414;-87
2022/06/26 08:16:52;;;;;;;4.30;0.93;;;19.50;63.00;;;;;;6031633;23;20497;-87
2022/06/26 08:19:17;;;;;;;5.25;1.05;;;19.50;62.70;;;;;;6025781;23;20048;-87
2022/06/26 08:22:01;;;;;;;2.88;0.40;;;19.50;63.00;;;;;;6031614;23;20473;-87
2022/06/26 08:24:28;;;;;;;3.67;0.73;;;19.50;62.20;;;;;;6055223;23;20018;-87
2022/06/26 08:26:54;;;;;;;3.58;0.60;;;19.50;62.20;;;;;;6059476;23;20007;-89
2022/06/26 08:29:20;;;;;;;3.42;0.80;;;19.60;61.90;;;;;;6056001;23;20086;-86
2022/06/26 08:31:45;;;;;;;4.63;0.85;;;19.50;61.40;;;;;;6056450;23;20039;-88
2022/06/26 08:34:11;;;;;;;7.20;1.10;;;19.60;61.20;;;;;;6057467;23;20113;-88
2022/06/26 08:36:38;;;;;;;3.22;0.73;;;19.60;61.00;;;;;;6029701;23;20482;-87
2022/06/26 08:39:07;;;;;;;2.88;0.80;;;19.60;60.60;;;;;;6055605;23;20007;-88
2022/06/26 08:41:40;;;;;;;2.70;0.90;;;19.60;60.50;;;;;;6053282;23;20065;-87
2022/06/26 08:44:07;;;;;;;4.15;1.05;;;19.60;61.10;;;;;;6057389;23;20094;-87
2022/06/26 08:46:37;;;;;;;3.30;0.82;;;19.60;60.60;;;;;;6055135;23;20415;-87
2022/06/26 08:49:15;;;;;;;2.67;0.93;;;19.60;60.60;;;;;;6031960;23;20015;-87
2022/06/26 08:51:44;;;;;;;3.40;0.70;;;19.70;60.40;;;;;;6032342;23;20481;-86
2022/06/26 08:54:14;;;;;;;4.10;0.95;;;19.60;60.20;;;;;;6032388;23;20224;-86
2022/06/26 08:56:43;;;;;;;7.93;1.33;;;19.60;60.20;;;;;;6033524;23;20098;-85
2022/06/26 08:59:15;;;;;;;1.80;0.70;;;19.60;60.10;;;;;;6031004;23;20014;-87
2022/06/26 09:01:42;;;;;;;1.55;0.60;;;19.60;59.80;;;;;;6030782;23;20007;-87
2022/06/26 09:04:09;;;;;;;7.60;0.93;;;19.40;59.70;;;;;;6031678;23;20017;-87
2022/06/26 09:06:38;;;;;;;5.75;1.00;;;19.70;59.50;;;;;;6031139;23;20019;-87
2022/06/26 09:09:25;;;;;;;2.40;0.90;;;19.70;59.50;;;;;;6053076;23;20046;-87
2022/06/26 09:11:54;;;;;;;4.60;0.80;;;19.70;59.20;;;;;;6028054;23;20034;-88
2022/06/26 09:14:21;;;;;;;3.83;0.80;;;19.70;58.90;;;;;;6029286;23;20014;-86
2022/06/26 09:16:49;;;;;;;3.63;0.75;;;19.80;58.80;;;;;;6023399;23;20019;-86
2022/06/26 09:19:18;;;;;;;3.30;0.63;;;19.80;58.60;;;;;;6001467;23;20007;-87
2022/06/26 09:21:46;;;;;;;4.82;0.75;;;19.80;58.30;;;;;;6004303;23;20007;-87
2022/06/26 09:24:14;;;;;;;4.18;1.13;;;19.80;57.50;;;;;;5981676;23;20003;-87
2022/06/26 09:26:41;;;;;;;5.05;0.80;;;19.90;57.50;;;;;;6004606;23;20054;-87
2022/06/26 09:29:13;;;;;;;2.78;0.65;;;19.90;57.50;;;;;;6026580;23;20015;-87
2022/06/26 09:31:39;;;;;;;5.40;1.02;;;19.90;57.20;;;;;;6002786;23;20016;-86
2022/06/26 09:34:07;;;;;;;2.83;0.93;;;19.90;56.90;;;;;;6003571;23;20035;-87
2022/06/26 09:36:33;;;;;;;1.90;0.68;;;19.80;56.50;;;;;;6005976;23;20090;-87
2022/06/26 09:38:59;;;;;;;3.95;0.80;;;20.00;56.60;;;;;;6026750;23;20007;-87
2022/06/26 09:41:33;;;;;;;4.35;1.05;;;20.00;56.40;;;;;;6001763;23;20012;-87
2022/06/26 09:43:59;;;;;;;2.67;0.70;;;20.00;56.10;;;;;;6002831;23;20470;-87
2022/06/26 09:46:31;;;;;;;3.70;0.80;;;20.10;56.10;;;;;;6004746;23;20599;-88
2022/06/26 09:48:58;;;;;;;2.97;1.00;;;20.00;55.80;;;;;;6004846;23;20407;-87
2022/06/26 09:51:25;;;;;;;3.67;1.00;;;20.10;55.80;;;;;;6003145;23;20011;-87
2022/06/26 09:53:52;;;;;;;3.65;0.60;;;20.10;55.60;;;;;;6025536;23;20762;-87
2022/06/26 09:56:18;;;;;;;1.02;0.40;;;20.20;55.10;;;;;;6005209;23;20015;-87
2022/06/26 09:58:44;;;;;;;2.75;0.73;;;20.20;55.00;;;;;;6003744;23;20030;-87
2022/06/26 10:06:43;;;;;;;3.03;0.85;;;20.40;55.00;;;;;;6009432;23;20098;-87
2022/06/26 10:09:10;;;;;;;1.90;1.02;;;20.40;54.80;;;;;;5979339;23;20086;-87
2022/06/26 10:11:40;;;;;;;4.80;1.17;;;20.40;54.70;;;;;;6002191;23;20011;-87
2022/06/26 10:14:19;;;;;;;1.08;0.60;;;20.50;55.50;;;;;;6005434;23;20035;-87
2022/06/26 10:17:26;;;;;;;3.17;0.95;;;20.50;54.70;;;;;;6009340;23;20447;-85
2022/06/26 10:19:56;;;;;;;3.45;0.73;;;20.60;54.40;;;;;;6001033;23;20011;-89
2022/06/26 10:22:22;;;;;;;3.00;0.70;;;20.60;54.40;;;;;;6031434;23;20042;-86
2022/06/26 10:25:00;;;;;;;2.05;0.75;;;20.70;54.30;;;;;;6053481;23;20085;-88
2022/06/26 10:27:32;;;;;;;1.80;0.88;;;20.70;53.80;;;;;;6031529;23;20038;-88
2022/06/26 10:30:15;;;;;;;2.83;0.85;;;20.80;53.40;;;;;;6004057;23;20018;-87
2022/06/26 10:32:42;;;;;;;3.50;0.90;;;20.80;53.30;;;;;;6031660;23;20393;-87
2022/06/26 10:35:10;;;;;;;3.00;0.77;;;20.80;53.50;;;;;;6027799;23;20106;-87
2022/06/26 10:37:45;;;;;;;2.22;0.85;;;20.90;53.90;;;;;;6053984;23;20019;-87
2022/06/26 10:43:05;;;;;;;2.75;0.63;;;20.90;53.40;;;;;;6053981;23;20074;-87
2022/06/26 10:45:39;;;;;;;1.75;0.50;;;20.90;54.20;;;;;;6054134;23;20042;-87
2022/06/26 10:48:17;;;;;;;3.85;0.80;;;21.00;53.40;;;;;;6032539;23;20007;-87
2022/06/26 10:50:45;;;;;;;5.05;0.93;;;21.00;53.40;;;;;;6033883;23;20070;-88
2022/06/26 10:53:20;;;;;;;5.45;1.13;;;21.00;53.50;;;;;;6034776;23;20014;-87
2022/06/26 10:55:58;;;;;;;2.85;0.75;;;21.00;53.40;;;;;;6031870;23;20007;-85
2022/06/26 10:58:29;;;;;;;4.22;0.90;;;21.10;53.60;;;;;;6053190;23;20074;-87
2022/06/26 11:01:01;;;;;;;2.55;0.80;;;21.10;53.60;;;;;;6031525;23;20097;-86
2022/06/26 11:03:28;;;;;;;2.95;0.90;;;21.10;53.50;;;;;;6053553;23;20077;-87
2022/06/26 11:06:11;;;;;;;3.88;1.08;;;21.20;54.00;;;;;;6030248;23;20328;-86
2022/06/26 11:08:49;;;;;;;4.20;0.80;;;21.20;53.20;;;;;;6032049;23;20905;-87
2022/06/26 11:11:22;;;;;;;5.13;1.00;;;21.20;53.20;;;;;;6029541;23;20007;-86
2022/06/26 11:13:57;;;;;;;5.70;1.38;;;21.30;53.30;;;;;;6049287;23;20041;-86
2022/06/26 11:16:43;;;;;;;5.53;1.52;;;21.30;52.90;;;;;;6028591;23;20023;-87
2022/06/26 11:19:28;;;;;;;2.65;0.90;;;21.30;53.10;;;;;;6056474;23;20007;-86
2022/06/26 11:22:12;;;;;;;1.20;0.68;;;21.30;53.00;;;;;;6030159;23;20007;-86
2022/06/26 11:24:51;;;;;;;4.72;1.00;;;21.40;53.00;;;;;;6056050;23;20045;-85
2022/06/26 11:27:21;;;;;;;1.77;0.65;;;21.40;53.10;;;;;;6030902;23;20014;-88
2022/06/26 11:29:47;;;;;;;2.03;0.90;;;21.50;53.20;;;;;;6055769;23;20038;-88
2022/06/26 11:32:13;;;;;;;2.05;1.00;;;21.50;53.20;;;;;;6029817;23;20121;-84
2022/06/26 11:34:53;;;;;;;4.03;1.70;;;21.50;53.00;;;;;;6057260;23;20336;-88
2022/06/26 11:37:36;;;;;;;4.05;0.88;;;21.60;52.70;;;;;;6031166;23;20015;-88
2022/06/26 11:40:31;;;;;;;2.42;0.90;;;21.70;52.40;;;;;;6056984;23;20447;-88
2022/06/26 11:42:57;;;;;;;9.98;2.22;;;21.80;52.40;;;;;;5991574;23;20014;-88
2022/06/26 11:45:25;;;;;;;9.48;3.53;;;21.80;52.50;;;;;;6057411;23;20086;-87
2022/06/26 11:47:52;;;;;;;4.35;1.38;;;21.80;52.30;;;;;;6056403;23;20019;-88
2022/06/26 11:50:20;;;;;;;3.75;1.38;;;21.80;52.20;;;;;;6058094;23;20396;-88
2022/06/26 11:52:52;;;;;;;6.28;1.70;;;21.80;52.00;;;;;;6054551;23;20007;-87
2022/06/26 11:55:18;;;;;;;4.60;1.38;;;21.80;51.70;;;;;;6008350;23;20017;-86
2022/06/26 11:57:44;;;;;;;5.43;1.75;;;21.90;51.80;;;;;;6057367;23;20015;-85
2022/06/26 12:00:12;;;;;;;4.32;1.45;;;21.90;51.40;;;;;;6035659;23;20007;-88
2022/06/26 12:02:46;;;;;;;2.17;0.82;;;21.90;51.40;;;;;;6055252;23;20007;-88
2022/06/26 12:05:12;;;;;;;3.90;1.17;;;22.00;51.30;;;;;;6056787;23;20011;-88
2022/06/26 12:07:47;;;;;;;2.83;0.85;;;22.00;51.40;;;;;;6030894;23;20085;-88
2022/06/26 12:10:30;;;;;;;1.52;0.70;;;22.00;51.20;;;;;;6033374;23;20010;-88
2022/06/26 12:13:06;;;;;;;5.55;1.15;;;22.00;51.20;;;;;;6056868;23;20114;-87
2022/06/26 12:15:35;;;;;;;5.10;1.23;;;22.00;51.20;;;;;;6054033;23;20010;-88
2022/06/26 12:18:04;;;;;;;3.42;1.08;;;22.00;51.10;;;;;;6031335;23;20015;-88
2022/06/26 12:20:39;;;;;;;7.93;1.40;;;22.10;51.00;;;;;;6033649;23;20011;-88
2022/06/26 12:23:06;;;;;;;4.75;1.10;;;22.10;51.50;;;;;;6055210;23;20442;-88
2022/06/26 12:25:34;;;;;;;1.95;0.90;;;22.10;51.00;;;;;;6031680;23;20003;-88
2022/06/26 12:28:01;;;;;;;2.95;1.20;;;22.10;51.00;;;;;;6056165;23;20395;-88
2022/06/26 12:30:36;;;;;;;5.00;1.05;;;22.20;51.00;;;;;;6057225;23;20017;-87
2022/06/26 12:33:04;;;;;;;2.63;0.73;;;22.20;51.00;;;;;;6030952;23;20088;-87
2022/06/26 12:35:31;;;;;;;3.88;1.30;;;22.20;50.80;;;;;;6031766;23;20141;-88
2022/06/26 12:38:00;;;;;;;3.75;0.80;;;22.20;50.90;;;;;;6056067;23;20011;-88
2022/06/26 12:40:28;;;;;;;3.13;0.90;;;22.20;50.80;;;;;;6031909;23;20450;-88
2022/06/26 12:42:54;;;;;;;1.42;0.75;;;22.20;50.80;;;;;;6033634;23;20504;-88
2022/06/26 12:45:20;;;;;;;4.57;0.95;;;22.20;50.70;;;;;;6031421;23;20011;-87
2022/06/26 12:47:46;;;;;;;3.22;0.85;;;22.20;50.70;;;;;;6058403;23;20015;-85
2022/06/26 12:50:15;;;;;;;4.97;0.73;;;22.20;50.50;;;;;;6058000;23;20066;-88
2022/06/26 12:52:41;;;;;;;3.47;0.70;;;22.30;50.40;;;;;;6058359;23;20011;-87
2022/06/26 12:55:09;;;;;;;2.85;0.88;;;22.30;50.30;;;;;;6030332;23;20021;-87
2022/06/26 12:57:35;;;;;;;1.80;0.60;;;22.30;50.20;;;;;;6057304;23;20306;-87
2022/06/26 13:00:03;;;;;;;4.55;1.30;;;22.30;50.20;;;;;;6056471;23;20003;-87
2022/06/26 13:02:28;;;;;;;4.55;1.00;;;22.30;50.00;;;;;;6053735;23;20035;-88
2022/06/26 13:04:54;;;;;;;4.35;0.73;;;22.40;50.00;;;;;;6054029;23;20078;-88
2022/06/26 13:07:20;;;;;;;4.63;0.70;;;22.40;50.00;;;;;;6055132;23;20018;-87
2022/06/26 13:09:47;;;;;;;5.45;0.90;;;22.40;49.50;;;;;;6008986;23;20142;-86
2022/06/26 13:12:12;;;;;;;1.83;0.85;;;22.40;49.60;;;;;;6056797;23;20015;-88
2022/06/26 13:14:38;;;;;;;2.58;1.27;;;22.40;49.40;;;;;;6055822;23;20078;-88
2022/06/26 13:17:04;;;;;;;3.65;0.57;;;22.50;49.30;;;;;;6034212;23;20015;-88
2022/06/26 13:19:30;;;;;;;9.70;0.90;;;22.50;49.20;;;;;;6035023;23;20007;-88
2022/06/26 13:21:56;;;;;;;4.00;0.95;;;22.50;49.10;;;;;;6034496;23;20489;-88
2022/06/26 13:24:22;;;;;;;4.05;1.23;;;22.50;49.20;;;;;;6032174;23;20011;-89
2022/06/26 13:26:49;;;;;;;3.25;0.75;;;22.60;49.20;;;;;;6059147;23;20402;-88
2022/06/26 13:29:14;;;;;;;3.60;0.57;;;22.60;49.30;;;;;;6035490;23;20017;-85
2022/06/26 13:31:40;;;;;;;4.07;0.90;;;22.60;49.40;;;;;;6036756;23;20109;-86
2022/06/26 13:34:06;;;;;;;1.48;0.80;;;22.60;49.10;;;;;;6032577;23;20011;-88
2022/06/26 13:36:32;;;;;;;2.42;0.88;;;22.60;49.00;;;;;;6059856;23;20007;-89
2022/06/26 13:38:58;;;;;;;3.17;0.90;;;22.70;49.20;;;;;;6059033;23;20003;-88
2022/06/26 13:41:24;;;;;;;3.33;1.10;;;22.70;49.20;;;;;;6034741;23;20014;-89
2022/06/26 13:43:50;;;;;;;2.88;0.70;;;22.70;49.20;;;;;;6032535;23;20015;-87
2022/06/26 13:46:16;;;;;;;2.97;1.10;;;22.70;49.30;;;;;;6035072;23;20007;-86
2022/06/26 13:48:41;;;;;;;4.30;0.82;;;22.70;49.40;;;;;;6060448;23;20347;-88
2022/06/26 13:51:07;;;;;;;3.83;0.80;;;22.70;49.40;;;;;;6059346;23;20011;-89
2022/06/26 13:53:33;;;;;;;4.25;1.08;;;22.70;49.40;;;;;;6035009;23;20015;-88
2022/06/26 13:55:59;;;;;;;5.55;1.00;;;22.70;49.20;;;;;;6033442;23;20402;-88
2022/06/26 13:58:25;;;;;;;2.22;0.80;;;22.70;49.00;;;;;;6035730;23;20462;-88
2022/06/26 14:00:51;;;;;;;3.80;1.02;;;22.80;49.00;;;;;;6034400;23;20007;-89
2022/06/26 14:03:16;;;;;;;1.50;0.68;;;22.80;48.90;;;;;;6035035;23;20007;-87
2022/06/26 14:05:42;;;;;;;4.57;1.10;;;22.80;48.80;;;;;;6061122;23;20003;-88
2022/06/26 14:08:08;;;;;;;3.75;0.95;;;22.90;48.80;;;;;;6034397;23;20007;-89
2022/06/26 14:10:36;;;;;;;4.35;1.00;;;22.90;48.70;;;;;;6057940;23;20011;-88
2022/06/26 14:13:04;;;;;;;3.08;1.00;;;22.90;48.60;;;;;;6034916;23;20014;-89
2022/06/26 14:15:30;;;;;;;3.53;0.70;;;22.90;48.40;;;;;;6033361;23;20022;-88
2022/06/26 14:17:56;;;;;;;3.75;0.80;;;22.90;48.30;;;;;;6035855;23;20082;-88
2022/06/26 14:20:22;;;;;;;2.13;0.90;;;22.90;48.20;;;;;;6033915;23;20015;-88
2022/06/26 14:28:16;;;;;;;6.13;0.98;;;22.90;47.50;;;;;;6057379;23;20034;-86
2022/06/26 14:30:43;;;;;;;3.90;1.05;;;22.90;47.80;;;;;;6059122;23;20450;-88
2022/06/26 14:33:09;;;;;;;4.90;0.88;;;22.90;47.70;;;;;;6035221;23;20044;-88
2022/06/26 14:35:35;;;;;;;3.63;0.70;;;22.90;47.80;;;;;;6055408;23;20010;-88
2022/06/26 14:38:01;;;;;;;2.67;0.90;;;22.90;47.90;;;;;;6033360;23;20042;-89
2022/06/26 14:40:30;;;;;;;2.85;0.60;;;23.00;48.00;;;;;;6059284;23;20017;-88
2022/06/26 14:42:55;;;;;;;1.83;0.85;;;23.00;48.00;;;;;;6031013;23;20003;-89
2022/06/26 14:45:21;;;;;;;4.50;0.98;;;22.90;48.00;;;;;;6032817;23;20014;-86
2022/06/26 14:47:47;;;;;;;4.70;0.93;;;23.00;48.10;;;;;;6034770;23;20010;-88
2022/06/26 14:50:13;;;;;;;3.38;1.38;;;23.00;48.00;;;;;;6058008;23;20061;-88
2022/06/26 14:52:38;;;;;;;2.92;0.80;;;23.00;47.90;;;;;;6060544;23;20007;-89
2022/06/26 14:55:06;;;;;;;2.83;0.60;;;23.00;47.90;;;;;;6032638;23;20015;-88
2022/06/26 14:57:32;;;;;;;2.67;0.90;;;23.00;48.10;;;;;;6056973;23;20546;-88
2022/06/26 14:59:58;;;;;;;3.10;0.80;;;23.00;48.20;;;;;;6032975;23;20011;-88
2022/06/26 15:02:24;;;;;;;2.40;0.75;;;23.00;48.30;;;;;;6032857;23;20006;-88
2022/06/26 15:04:50;;;;;;;2.53;0.80;;;23.00;48.40;;;;;;6032518;23;20003;-89
2022/06/26 15:07:16;;;;;;;1.83;0.60;;;23.00;48.50;;;;;;6035213;23;20011;-88
2022/06/26 15:09:41;;;;;;;4.13;1.00;;;23.00;48.70;;;;;;6053890;23;20011;-86
2022/06/26 15:12:08;;;;;;;3.58;0.95;;;23.00;48.70;;;;;;6018568;23;20175;-88
2022/06/26 15:14:34;;;;;;;2.58;1.02;;;22.90;48.50;;;;;;6032844;23;20025;-89
2022/06/26 15:17:00;;;;;;;2.28;0.80;;;22.90;48.70;;;;;;6032191;23;20387;-87
2022/06/26 15:19:26;;;;;;;1.67;0.60;;;22.90;48.80;;;;;;6032606;23;20014;-89
2022/06/26 15:21:52;;;;;;;4.53;1.10;;;22.90;48.80;;;;;;6033366;23;20010;-88
2022/06/26 15:24:19;;;;;;;6.03;0.73;;;22.90;48.90;;;;;;6055328;23;20229;-89
2022/06/26 15:26:45;;;;;;;3.05;0.75;;;22.90;48.90;;;;;;6055778;23;20022;-88
2022/06/26 15:29:11;;;;;;;3.63;1.15;;;22.90;48.90;;;;;;6032353;23;20011;-86
2022/06/26 15:31:37;;;;;;;2.67;0.80;;;22.90;49.00;;;;;;6034181;23;20359;-89
2022/06/26 15:34:03;;;;;;;2.35;0.77;;;22.90;49.00;;;;;;6032301;23;20015;-87
2022/06/26 15:36:29;;;;;;;2.10;0.68;;;22.80;48.90;;;;;;6034078;23;20015;-88
2022/06/26 15:38:54;;;;;;;3.60;0.70;;;22.90;49.60;;;;;;6032450;23;20003;-88
2022/06/26 15:41:20;;;;;;;1.90;0.80;;;22.80;48.80;;;;;;6032000;23;20458;-88
2022/06/26 15:43:46;;;;;;;1.50;0.80;;;22.80;48.80;;;;;;6056230;23;20035;-88
2022/06/26 15:46:12;;;;;;;4.72;1.02;;;22.80;48.90;;;;;;6057050;23;20013;-89
2022/06/26 15:48:38;;;;;;;3.22;0.80;;;22.80;49.00;;;;;;6033841;23;20018;-86
2022/06/26 15:51:03;;;;;;;1.25;0.52;;;22.80;49.10;;;;;;6034165;23;20490;-88
2022/06/26 15:53:30;;;;;;;1.38;0.70;;;22.80;49.10;;;;;;6009759;23;20014;-88
2022/06/26 15:55:56;;;;;;;3.95;0.75;;;22.80;49.10;;;;;;6056280;23;20037;-88
2022/06/26 15:58:22;;;;;;;3.95;0.98;;;22.80;49.10;;;;;;6056821;23;20010;-88
2022/06/26 16:00:47;;;;;;;3.70;0.90;;;22.80;49.10;;;;;;6058175;23;20017;-89
2022/06/26 16:03:13;;;;;;;3.15;0.80;;;22.80;49.20;;;;;;6055925;23;20026;-88
2022/06/26 16:05:39;;;;;;;3.60;1.27;;;22.80;49.20;;;;;;6033399;23;20011;-88
2022/06/26 16:08:05;;;;;;;1.80;0.77;;;22.80;49.20;;;;;;6035829;23;20363;-86
2022/06/26 16:10:31;;;;;;;3.70;0.80;;;22.80;49.30;;;;;;6035589;23;20018;-88
2022/06/26 16:12:57;;;;;;;3.17;0.85;;;22.70;49.30;;;;;;6058216;23;20010;-89
2022/06/26 16:15:23;;;;;;;2.17;0.88;;;22.70;49.40;;;;;;6032039;23;20007;-88
2022/06/26 16:17:49;;;;;;;2.90;1.38;;;22.70;49.40;;;;;;6055025;23;20011;-89
2022/06/26 16:20:15;;;;;;;2.55;0.80;;;22.70;49.50;;;;;;6030641;23;20006;-88
2022/06/26 16:28:09;;;;;;;3.30;0.90;;;22.70;49.40;;;;;;6056378;23;20744;-88
2022/06/26 16:30:35;;;;;;;3.20;0.90;;;22.70;49.40;;;;;;6035294;23;20011;-89
2022/06/26 16:33:02;;;;;;;3.40;0.68;;;22.70;49.40;;;;;;6054171;23;20011;-88
2022/06/26 16:35:28;;;;;;;1.67;0.60;;;22.70;49.40;;;;;;6032829;23;20023;-88
2022/06/26 16:37:54;;;;;;;3.92;0.88;;;22.70;49.50;;;;;;6031741;23;20058;-89
2022/06/26 16:40:23;;;;;;;3.35;0.95;;;22.70;49.70;;;;;;6056908;23;20011;-88
2022/06/26 16:42:51;;;;;;;2.55;0.73;;;22.70;50.00;;;;;;6010686;23;20011;-89
2022/06/26 16:45:16;;;;;;;2.78;0.95;;;22.70;50.30;;;;;;6029841;23;20007;-89
2022/06/26 16:47:42;;;;;;;3.38;1.00;;;22.70;50.50;;;;;;6033023;23;20066;-88
2022/06/26 16:50:10;;;;;;;3.70;1.30;;;22.70;50.70;;;;;;6055420;23;20441;-88
2022/06/26 16:52:37;;;;;;;3.80;1.10;;;22.70;51.00;;;;;;6031718;23;20524;-86
2022/06/26 16:55:06;;;;;;;2.83;0.85;;;22.60;51.20;;;;;;6056948;23;20042;-89
2022/06/26 16:57:32;;;;;;;1.27;0.70;;;22.70;51.50;;;;;;6034277;23;20014;-89
2022/06/26 16:59:59;;;;;;;3.80;0.95;;;22.60;51.60;;;;;;6033163;23;20450;-89
2022/06/26 17:02:25;;;;;;;1.80;0.60;;;22.60;51.80;;;;;;6056343;23;20002;-88
2022/06/26 17:04:51;;;;;;;3.55;0.90;;;22.60;51.90;;;;;;6056967;23;20007;-89
2022/06/26 17:07:17;;;;;;;2.53;0.60;;;22.60;52.30;;;;;;6031535;23;20407;-88
2022/06/26 17:09:44;;;;;;;2.35;0.73;;;22.60;52.10;;;;;;6030518;23;20015;-88
2022/06/26 17:12:10;;;;;;;2.90;1.20;;;22.60;52.10;;;;;;6031005;23;20082;-89
2022/06/26 17:14:36;;;;;;;3.70;1.17;;;22.60;52.20;;;;;;6055639;23;20477;-88
2022/06/26 17:17:03;;;;;;;7.18;1.50;;;22.60;52.30;;;;;;6008111;23;20098;-88
2022/06/26 17:19:29;;;;;;;2.00;0.85;;;22.60;52.30;;;;;;6009957;23;20003;-88
2022/06/26 17:21:54;;;;;;;3.28;1.00;;;22.60;52.40;;;;;;6032072;23;20051;-88
2022/06/26 17:24:20;;;;;;;1.92;0.85;;;22.60;52.30;;;;;;6031590;23;20007;-87
2022/06/26 17:26:50;;;;;;;2.60;0.98;;;22.60;52.30;;;;;;6056619;23;20081;-88
2022/06/26 17:29:16;;;;;;;1.73;0.80;;;22.50;52.30;;;;;;6007879;23;20451;-88
2022/06/26 17:31:43;;;;;;;3.25;1.08;;;22.60;52.30;;;;;;6031570;23;20011;-89
2022/06/26 17:34:09;;;;;;;2.58;1.10;;;22.50;52.30;;;;;;6032740;23;20010;-88
2022/06/26 17:36:36;;;;;;;3.35;0.98;;;22.50;52.90;;;;;;6028894;23;20451;-89
2022/06/26 17:39:04;;;;;;;3.17;0.82;;;22.50;52.40;;;;;;6055879;23;20063;-88
2022/06/26 17:41:32;;;;;;;2.38;1.00;;;22.50;52.50;;;;;;6034572;23;20003;-86
2022/06/26 17:44:01;;;;;;;5.05;1.00;;;22.50;52.50;;;;;;6057287;23;20018;-88
2022/06/26 17:46:29;;;;;;;1.50;0.63;;;22.50;53.00;;;;;;6057153;23;20020;-87
2022/06/26 17:48:56;;;;;;;1.50;0.70;;;22.40;52.50;;;;;;6058788;23;20501;-89
2022/06/26 17:51:22;;;;;;;5.20;1.27;;;22.40;52.60;;;;;;6031857;23;20014;-88
2022/06/26 17:53:49;;;;;;;2.35;0.75;;;22.40;52.60;;;;;;6031413;23;20098;-88
2022/06/26 17:56:14;;;;;;;4.80;0.90;;;22.40;52.70;;;;;;6058095;23;20007;-88
2022/06/26 17:58:40;;;;;;;2.20;0.88;;;22.40;52.80;;;;;;6032254;23;20358;-88
2022/06/26 18:01:11;;;;;;;2.30;0.80;;;22.40;52.90;;;;;;6029295;23;20446;-88
2022/06/26 18:03:38;;;;;;;4.70;1.10;;;22.30;53.10;;;;;;6033796;23;20465;-88
2022/06/26 18:06:09;;;;;;;2.20;0.98;;;22.30;53.10;;;;;;6034478;23;20010;-88
2022/06/26 18:08:41;;;;;;;3.92;1.20;;;22.30;53.10;;;;;;6035242;23;20403;-89
2022/06/26 18:11:07;;;;;;;1.95;0.98;;;22.30;53.20;;;;;;6057082;23;20439;-89
2022/06/26 18:13:35;;;;;;;3.80;1.13;;;22.30;53.30;;;;;;6057508;23;20014;-88
2022/06/26 18:16:02;;;;;;;3.17;1.30;;;22.30;53.40;;;;;;6035279;23;20439;-88
2022/06/26 18:18:29;;;;;;;2.47;1.08;;;22.20;53.40;;;;;;6033162;23;20504;-88
2022/06/26 18:20:55;;;;;;;1.52;0.77;;;22.20;53.40;;;;;;6035731;23;20092;-86
2022/06/26 18:23:21;;;;;;;2.15;0.70;;;22.20;53.50;;;;;;6059181;23;20011;-88
2022/06/26 18:25:47;;;;;;;2.55;0.85;;;22.30;54.20;;;;;;6054749;23;20062;-88
2022/06/26 18:28:14;;;;;;;2.03;1.00;;;22.30;53.60;;;;;;6030733;23;20018;-88
2022/06/26 18:30:40;;;;;;;6.07;1.10;;;22.20;53.60;;;;;;6032647;23;20011;-87
2022/06/26 18:33:06;;;;;;;3.45;1.10;;;22.30;53.70;;;;;;6056408;23;20478;-88
2022/06/26 18:35:32;;;;;;;2.85;1.00;;;22.20;53.70;;;;;;6055184;23;20477;-88
2022/06/26 18:37:58;;;;;;;4.75;0.88;;;22.20;53.90;;;;;;6034965;23;20470;-88
2022/06/26 18:40:27;;;;;;;4.85;1.77;;;22.20;53.90;;;;;;6034559;23;20058;-87
2022/06/26 18:42:53;;;;;;;4.30;1.15;;;22.20;54.00;;;;;;6058748;23;20078;-89
2022/06/26 18:45:20;;;;;;;6.07;1.38;;;22.20;54.10;;;;;;6035512;23;20018;-88
2022/06/26 18:47:46;;;;;;;7.82;1.02;;;22.20;54.10;;;;;;6033170;23;20011;-89
2022/06/26 18:50:13;;;;;;;4.72;0.80;;;22.20;54.20;;;;;;6055983;23;20007;-88
2022/06/26 18:52:40;;;;;;;3.50;1.35;;;22.10;54.20;;;;;;6034206;23;20387;-84
2022/06/26 18:55:07;;;;;;;10.07;3.85;;;22.20;54.30;;;;;;6055464;23;20010;-90
2022/06/26 18:57:33;;;;;;;3.15;1.10;;;22.10;54.30;;;;;;6051603;23;20089;-87
2022/06/26 18:59:59;;;;;;;3.10;1.10;;;22.10;54.40;;;;;;6054703;23;20469;-87
2022/06/26 19:02:27;;;;;;;3.97;1.83;;;22.10;54.50;;;;;;6033160;23;20003;-87
2022/06/26 19:04:53;;;;;;;3.58;0.80;;;22.20;54.50;;;;;;6032361;23;20388;-87
2022/06/26 19:07:19;;;;;;;5.68;1.25;;;22.20;54.50;;;;;;6034070;23;20007;-87
2022/06/26 19:09:45;;;;;;;2.15;0.95;;;22.20;54.50;;;;;;6031757;23;20007;-87
2022/06/26 19:14:55;;;;;;;4.03;1.00;;;22.20;54.40;;;;;;6056356;23;20021;-87
2022/06/26 19:17:22;;;;;;;3.30;0.80;;;22.20;54.30;;;;;;6055860;23;20019;-86
2022/06/26 19:19:54;;;;;;;6.80;1.27;;;22.20;54.30;;;;;;6033838;23;20007;-85
2022/06/26 19:22:23;;;;;;;3.13;0.90;;;22.20;54.30;;;;;;6030554;23;20043;-85
2022/06/26 19:24:50;;;;;;;2.55;1.00;;;22.20;54.30;;;;;;6032669;23;20039;-85
2022/06/26 19:27:16;;;;;;;4.35;1.13;;;22.20;54.30;;;;;;6033176;23;20086;-87
2022/06/26 19:29:42;;;;;;;3.88;0.95;;;22.20;54.40;;;;;;6029566;23;20394;-87
2022/06/26 19:32:12;;;;;;;2.50;1.08;;;22.10;54.30;;;;;;6055976;23;20018;-87
2022/06/26 19:34:43;;;;;;;2.40;0.77;;;22.20;54.50;;;;;;6033264;23;20023;-87
2022/06/26 19:37:10;;;;;;;3.72;0.90;;;22.10;54.50;;;;;;6030520;23;20039;-87
2022/06/26 19:39:37;;;;;;;4.57;1.25;;;22.20;54.60;;;;;;6030665;23;20053;-86
2022/06/26 19:42:19;;;;;;;3.38;0.90;;;22.10;54.50;;;;;;6055571;23;20062;-88
2022/06/26 19:44:46;;;;;;;3.50;0.80;;;22.20;54.60;;;;;;6031742;23;20018;-85
2022/06/26 19:47:12;;;;;;;2.88;1.05;;;22.20;54.70;;;;;;6033872;23;20010;-86
2022/06/26 19:52:22;;;;;;;4.75;0.90;;;22.10;54.70;;;;;;6057363;23;20101;-87
2022/06/26 19:54:48;;;;;;;2.97;0.85;;;22.10;54.80;;;;;;6055442;23;20034;-87
2022/06/26 19:57:14;;;;;;;1.85;0.98;;;22.10;54.80;;;;;;6034259;23;20015;-86
2022/06/26 19:59:40;;;;;;;2.53;0.70;;;22.10;54.90;;;;;;6055844;23;20007;-86
2022/06/26 20:02:06;;;;;;;2.60;1.00;;;22.10;54.90;;;;;;6056398;23;20360;-88
2022/06/26 20:04:31;;;;;;;4.10;1.00;;;22.10;54.90;;;;;;6054432;23;20006;-87
2022/06/26 20:06:57;;;;;;;1.73;0.80;;;22.10;55.00;;;;;;6030605;23;20022;-88
2022/06/26 20:09:25;;;;;;;4.00;0.93;;;22.10;55.00;;;;;;6054913;23;20015;-87
2022/06/26 20:11:52;;;;;;;3.83;1.10;;;22.10;55.10;;;;;;6007033;23;20062;-88
2022/06/26 20:14:17;;;;;;;4.18;1.00;;;22.00;55.00;;;;;;6056273;23;20379;-87
2022/06/26 20:16:44;;;;;;;4.07;1.10;;;22.00;55.20;;;;;;6056755;23;20154;-87
2022/06/26 20:19:11;;;;;;;5.57;1.08;;;22.10;55.30;;;;;;6055469;23;20036;-87
2022/06/26 20:21:37;;;;;;;5.82;1.13;;;22.00;55.30;;;;;;6031735;23;20003;-88
2022/06/26 20:24:04;;;;;;;3.25;0.98;;;22.00;55.40;;;;;;6055059;23;20014;-87
2022/06/26 20:26:30;;;;;;;3.97;1.10;;;22.00;55.40;;;;;;6029206;23;20015;-87
2022/06/26 20:28:57;;;;;;;4.78;1.10;;;22.00;55.50;;;;;;6030011;23;20015;-87
2022/06/26 20:31:23;;;;;;;3.03;1.00;;;22.00;55.60;;;;;;6052197;23;20030;-87